sensor_id;sensor_type;location;lat;lon;timestamp;P1;durP1;ratioP1;P2;durP2;ratioP2
60999;SDS011;46879;45.658;11.814;2022-09-14T00:01:59;5.35;;;1.70;;
60999;SDS011;46879;45.658;11.814;2022-09-14T00:06:59;8.15;;;1.98;;
60999;SDS011;46879;45.658;11.814;2022-09-14T00:12:00;9.95;;;2.15;;
60999;SDS011;46879;45.658;11.814;2022-09-14T00:17:01;2.50;;;1.40;;
60999;SDS011;46879;45.658;11.814;2022-09-14T00:22:01;16.35;;;1.83;;
60999;SDS011;46879;45.658;11.814;2022-09-14T00:27:02;12.52;;;1.73;;
60999;SDS011;46879;45.658;11.814;2022-09-14T00:32:03;2.80;;;1.80;;
60999;SDS011;46879;45.658;11.814;2022-09-14T00:37:04;3.78;;;1.55;;
60999;SDS011;46879;45.658;11.814;2022-09-14T00:42:04;3.15;;;1.52;;
60999;SDS011;46879;45.658;11.814;2022-09-14T00:47:05;6.32;;;1.88;;
60999;SDS011;46879;45.658;11.814;2022-09-14T00:57:09;4.10;;;1.92;;
60999;SDS011;46879;45.658;11.814;2022-09-14T01:02:11;5.63;;;1.67;;
60999;SDS011;46879;45.658;11.814;2022-09-14T01:29:00;2.83;;;1.73;;
60999;SDS011;46879;45.658;11.814;2022-09-14T01:34:33;6.90;;;1.52;;
60999;SDS011;46879;45.658;11.814;2022-09-14T01:39:59;3.55;;;1.50;;
60999;SDS011;46879;45.658;11.814;2022-09-14T01:45:07;3.17;;;1.80;;
60999;SDS011;46879;45.658;11.814;2022-09-14T01:50:19;8.57;;;1.65;;
60999;SDS011;46879;45.658;11.814;2022-09-14T01:55:26;4.18;;;1.42;;
60999;SDS011;46879;45.658;11.814;2022-09-14T02:00:33;1.95;;;1.55;;
60999;SDS011;46879;45.658;11.814;2022-09-14T02:05:50;3.13;;;1.40;;
60999;SDS011;46879;45.658;11.814;2022-09-14T02:10:56;2.13;;;1.40;;
60999;SDS011;46879;45.658;11.814;2022-09-14T02:15:57;5.28;;;1.63;;
60999;SDS011;46879;45.658;11.814;2022-09-14T02:20:59;3.72;;;1.50;;
60999;SDS011;46879;45.658;11.814;2022-09-14T02:26:04;3.63;;;1.58;;
60999;SDS011;46879;45.658;11.814;2022-09-14T02:53:27;1.75;;;1.30;;
60999;SDS011;46879;45.658;11.814;2022-09-14T02:58:38;3.55;;;1.42;;
60999;SDS011;46879;45.658;11.814;2022-09-14T03:03:44;5.38;;;1.42;;
60999;SDS011;46879;45.658;11.814;2022-09-14T03:08:44;8.98;;;1.55;;
60999;SDS011;46879;45.658;11.814;2022-09-14T03:13:45;5.75;;;1.25;;
60999;SDS011;46879;45.658;11.814;2022-09-14T03:18:46;3.15;;;1.73;;
60999;SDS011;46879;45.658;11.814;2022-09-14T03:23:50;3.88;;;1.30;;
60999;SDS011;46879;45.658;11.814;2022-09-14T03:28:55;3.67;;;1.50;;
60999;SDS011;46879;45.658;11.814;2022-09-14T03:33:58;2.15;;;1.30;;
60999;SDS011;46879;45.658;11.814;2022-09-14T03:39:00;7.63;;;1.48;;
60999;SDS011;46879;45.658;11.814;2022-09-14T03:44:01;4.72;;;1.40;;
60999;SDS011;46879;45.658;11.814;2022-09-14T03:49:01;9.30;;;2.13;;
60999;SDS011;46879;45.658;11.814;2022-09-14T03:54:02;2.72;;;1.35;;
60999;SDS011;46879;45.658;11.814;2022-09-14T03:59:03;2.25;;;1.50;;
60999;SDS011;46879;45.658;11.814;2022-09-14T04:04:03;3.03;;;1.10;;
60999;SDS011;46879;45.658;11.814;2022-09-14T04:09:04;1.02;;;0.93;;
60999;SDS011;46879;45.658;11.814;2022-09-14T04:14:04;4.00;;;1.42;;
60999;SDS011;46879;45.658;11.814;2022-09-14T04:19:07;6.97;;;1.67;;
60999;SDS011;46879;45.658;11.814;2022-09-14T04:24:10;4.53;;;1.05;;
60999;SDS011;46879;45.658;11.814;2022-09-14T04:29:12;2.53;;;1.30;;
60999;SDS011;46879;45.658;11.814;2022-09-14T04:34:13;5.57;;;1.27;;
60999;SDS011;46879;45.658;11.814;2022-09-14T04:39:14;1.73;;;1.30;;
60999;SDS011;46879;45.658;11.814;2022-09-14T04:44:14;6.60;;;1.20;;
60999;SDS011;46879;45.658;11.814;2022-09-14T04:49:15;2.20;;;1.30;;
60999;SDS011;46879;45.658;11.814;2022-09-14T04:54:17;8.20;;;1.35;;
60999;SDS011;46879;45.658;11.814;2022-09-14T04:59:19;1.92;;;1.20;;
60999;SDS011;46879;45.658;11.814;2022-09-14T05:04:20;4.55;;;1.52;;
60999;SDS011;46879;45.658;11.814;2022-09-14T05:09:20;6.78;;;1.77;;
60999;SDS011;46879;45.658;11.814;2022-09-14T05:14:21;3.38;;;1.10;;
60999;SDS011;46879;45.658;11.814;2022-09-14T05:19:22;2.20;;;1.00;;
60999;SDS011;46879;45.658;11.814;2022-09-14T05:24:22;4.65;;;1.10;;
60999;SDS011;46879;45.658;11.814;2022-09-14T05:29:23;2.97;;;1.20;;
60999;SDS011;46879;45.658;11.814;2022-09-14T05:34:24;1.40;;;1.02;;
60999;SDS011;46879;45.658;11.814;2022-09-14T05:39:25;21.35;;;1.40;;
60999;SDS011;46879;45.658;11.814;2022-09-14T05:44:25;10.63;;;2.05;;
60999;SDS011;46879;45.658;11.814;2022-09-14T05:49:26;2.42;;;1.00;;
60999;SDS011;46879;45.658;11.814;2022-09-14T05:54:27;2.25;;;1.40;;
60999;SDS011;46879;45.658;11.814;2022-09-14T05:59:27;2.00;;;1.10;;
60999;SDS011;46879;45.658;11.814;2022-09-14T06:04:30;4.97;;;2.70;;
60999;SDS011;46879;45.658;11.814;2022-09-14T06:09:31;7.18;;;2.28;;
60999;SDS011;46879;45.658;11.814;2022-09-14T06:14:31;9.55;;;1.90;;
60999;SDS011;46879;45.658;11.814;2022-09-14T06:19:32;10.73;;;2.28;;
60999;SDS011;46879;45.658;11.814;2022-09-14T06:24:33;5.28;;;2.17;;
60999;SDS011;46879;45.658;11.814;2022-09-14T06:29:34;4.75;;;1.80;;
60999;SDS011;46879;45.658;11.814;2022-09-14T06:34:35;5.68;;;2.28;;
60999;SDS011;46879;45.658;11.814;2022-09-14T06:39:36;5.93;;;2.03;;
60999;SDS011;46879;45.658;11.814;2022-09-14T06:44:36;4.57;;;1.83;;
60999;SDS011;46879;45.658;11.814;2022-09-14T06:49:37;9.00;;;2.03;;
60999;SDS011;46879;45.658;11.814;2022-09-14T06:54:37;5.85;;;2.28;;
60999;SDS011;46879;45.658;11.814;2022-09-14T06:59:38;6.07;;;1.88;;
60999;SDS011;46879;45.658;11.814;2022-09-14T07:04:39;8.93;;;2.45;;
60999;SDS011;46879;45.658;11.814;2022-09-14T07:09:40;9.00;;;2.38;;
60999;SDS011;46879;45.658;11.814;2022-09-14T07:14:40;10.02;;;2.25;;
60999;SDS011;46879;45.658;11.814;2022-09-14T07:19:41;6.10;;;2.13;;
60999;SDS011;46879;45.658;11.814;2022-09-14T07:24:42;9.50;;;2.42;;
60999;SDS011;46879;45.658;11.814;2022-09-14T07:29:42;15.23;;;3.17;;
60999;SDS011;46879;45.658;11.814;2022-09-14T07:34:43;12.93;;;2.72;;
60999;SDS011;46879;45.658;11.814;2022-09-14T07:39:44;14.02;;;2.85;;
60999;SDS011;46879;45.658;11.814;2022-09-14T07:44:44;13.80;;;2.53;;
60999;SDS011;46879;45.658;11.814;2022-09-14T07:49:45;13.23;;;2.47;;
60999;SDS011;46879;45.658;11.814;2022-09-14T07:54:45;11.63;;;2.63;;
60999;SDS011;46879;45.658;11.814;2022-09-14T07:59:46;11.38;;;2.22;;
60999;SDS011;46879;45.658;11.814;2022-09-14T08:04:47;10.27;;;2.70;;
60999;SDS011;46879;45.658;11.814;2022-09-14T08:09:47;9.00;;;2.50;;
60999;SDS011;46879;45.658;11.814;2022-09-14T08:14:48;11.02;;;2.28;;
60999;SDS011;46879;45.658;11.814;2022-09-14T08:19:50;8.57;;;2.13;;
60999;SDS011;46879;45.658;11.814;2022-09-14T08:24:51;12.85;;;2.53;;
60999;SDS011;46879;45.658;11.814;2022-09-14T08:29:52;9.48;;;2.22;;
60999;SDS011;46879;45.658;11.814;2022-09-14T08:34:54;6.10;;;2.10;;
60999;SDS011;46879;45.658;11.814;2022-09-14T08:39:54;5.32;;;2.10;;
60999;SDS011;46879;45.658;11.814;2022-09-14T08:44:56;11.35;;;2.28;;
60999;SDS011;46879;45.658;11.814;2022-09-14T08:50:10;6.85;;;1.95;;
60999;SDS011;46879;45.658;11.814;2022-09-14T09:00:33;5.30;;;2.05;;
60999;SDS011;46879;45.658;11.814;2022-09-14T09:11:41;7.53;;;2.20;;
60999;SDS011;46879;45.658;11.814;2022-09-14T09:16:46;6.25;;;1.88;;
60999;SDS011;46879;45.658;11.814;2022-09-14T09:21:50;7.20;;;2.00;;
60999;SDS011;46879;45.658;11.814;2022-09-14T09:26:51;9.90;;;2.35;;
60999;SDS011;46879;45.658;11.814;2022-09-14T09:31:52;3.83;;;1.80;;
60999;SDS011;46879;45.658;11.814;2022-09-14T09:36:55;5.63;;;1.70;;
60999;SDS011;46879;45.658;11.814;2022-09-14T09:42:04;2.65;;;1.77;;
60999;SDS011;46879;45.658;11.814;2022-09-14T09:47:11;4.22;;;1.60;;
60999;SDS011;46879;45.658;11.814;2022-09-14T09:52:13;6.03;;;2.03;;
60999;SDS011;46879;45.658;11.814;2022-09-14T09:57:22;2.72;;;1.52;;
60999;SDS011;46879;45.658;11.814;2022-09-14T10:02:32;4.30;;;1.77;;
60999;SDS011;46879;45.658;11.814;2022-09-14T10:07:34;5.85;;;2.20;;
60999;SDS011;46879;45.658;11.814;2022-09-14T10:12:54;3.65;;;1.85;;
60999;SDS011;46879;45.658;11.814;2022-09-14T10:28:28;3.65;;;1.85;;
60999;SDS011;46879;45.658;11.814;2022-09-14T10:33:31;4.60;;;2.03;;
60999;SDS011;46879;45.658;11.814;2022-09-14T10:38:41;5.38;;;1.92;;
60999;SDS011;46879;45.658;11.814;2022-09-14T11:05:10;3.22;;;1.83;;
60999;SDS011;46879;45.658;11.814;2022-09-14T11:21:57;2.80;;;1.80;;
60999;SDS011;46879;45.658;11.814;2022-09-14T11:27:05;1.88;;;1.60;;
60999;SDS011;46879;45.658;11.814;2022-09-14T11:37:53;3.40;;;1.80;;
60999;SDS011;46879;45.658;11.814;2022-09-14T11:42:58;3.40;;;1.85;;
60999;SDS011;46879;45.658;11.814;2022-09-14T11:48:27;3.92;;;1.50;;
60999;SDS011;46879;45.658;11.814;2022-09-14T11:53:55;3.13;;;1.73;;
60999;SDS011;46879;45.658;11.814;2022-09-14T11:58:59;3.92;;;1.60;;
60999;SDS011;46879;45.658;11.814;2022-09-14T12:04:08;4.03;;;2.22;;
60999;SDS011;46879;45.658;11.814;2022-09-14T12:19:24;3.05;;;2.00;;
60999;SDS011;46879;45.658;11.814;2022-09-14T12:24:25;3.95;;;2.00;;
60999;SDS011;46879;45.658;11.814;2022-09-14T12:29:28;11.30;;;3.05;;
60999;SDS011;46879;45.658;11.814;2022-09-14T12:34:33;2.65;;;2.25;;
60999;SDS011;46879;45.658;11.814;2022-09-14T12:39:34;5.93;;;2.38;;
60999;SDS011;46879;45.658;11.814;2022-09-14T12:44:39;7.13;;;2.63;;
60999;SDS011;46879;45.658;11.814;2022-09-14T12:49:41;8.13;;;2.40;;
60999;SDS011;46879;45.658;11.814;2022-09-14T13:00:24;13.50;;;3.00;;
60999;SDS011;46879;45.658;11.814;2022-09-14T13:05:27;6.03;;;2.88;;
60999;SDS011;46879;45.658;11.814;2022-09-14T13:10:31;8.05;;;2.65;;
60999;SDS011;46879;45.658;11.814;2022-09-14T13:15:35;5.38;;;2.95;;
60999;SDS011;46879;45.658;11.814;2022-09-14T13:20:50;4.90;;;2.67;;
60999;SDS011;46879;45.658;11.814;2022-09-14T13:25:57;8.68;;;2.30;;
60999;SDS011;46879;45.658;11.814;2022-09-14T13:30:59;12.18;;;2.78;;
60999;SDS011;46879;45.658;11.814;2022-09-14T13:36:00;6.47;;;2.28;;
60999;SDS011;46879;45.658;11.814;2022-09-14T13:41:08;3.85;;;2.20;;
60999;SDS011;46879;45.658;11.814;2022-09-14T13:46:15;6.63;;;2.50;;
60999;SDS011;46879;45.658;11.814;2022-09-14T13:51:16;6.10;;;2.35;;
60999;SDS011;46879;45.658;11.814;2022-09-14T14:01:29;5.22;;;2.45;;
60999;SDS011;46879;45.658;11.814;2022-09-14T14:06:31;10.05;;;2.60;;
60999;SDS011;46879;45.658;11.814;2022-09-14T14:11:38;7.55;;;2.20;;
60999;SDS011;46879;45.658;11.814;2022-09-14T14:22:25;5.93;;;2.30;;
60999;SDS011;46879;45.658;11.814;2022-09-14T14:27:32;6.93;;;1.90;;
60999;SDS011;46879;45.658;11.814;2022-09-14T14:32:35;7.43;;;2.20;;
60999;SDS011;46879;45.658;11.814;2022-09-14T14:37:36;9.77;;;2.22;;
60999;SDS011;46879;45.658;11.814;2022-09-14T14:42:36;7.35;;;2.28;;
60999;SDS011;46879;45.658;11.814;2022-09-14T14:47:37;6.82;;;2.03;;
60999;SDS011;46879;45.658;11.814;2022-09-14T14:52:38;3.88;;;1.60;;
60999;SDS011;46879;45.658;11.814;2022-09-14T14:57:39;5.53;;;2.15;;
60999;SDS011;46879;45.658;11.814;2022-09-14T15:02:40;6.10;;;2.15;;
60999;SDS011;46879;45.658;11.814;2022-09-14T15:07:41;4.03;;;2.25;;
60999;SDS011;46879;45.658;11.814;2022-09-14T15:12:42;11.77;;;2.38;;
60999;SDS011;46879;45.658;11.814;2022-09-14T15:17:43;6.38;;;2.20;;
60999;SDS011;46879;45.658;11.814;2022-09-14T15:22:44;4.90;;;2.10;;
60999;SDS011;46879;45.658;11.814;2022-09-14T15:27:46;6.28;;;2.22;;
60999;SDS011;46879;45.658;11.814;2022-09-14T15:32:47;4.30;;;1.83;;
60999;SDS011;46879;45.658;11.814;2022-09-14T15:37:47;4.25;;;2.22;;
60999;SDS011;46879;45.658;11.814;2022-09-14T15:42:48;3.75;;;2.20;;
60999;SDS011;46879;45.658;11.814;2022-09-14T15:47:49;2.72;;;2.28;;
60999;SDS011;46879;45.658;11.814;2022-09-14T15:52:50;5.38;;;2.30;;
60999;SDS011;46879;45.658;11.814;2022-09-14T15:57:50;4.20;;;2.10;;
60999;SDS011;46879;45.658;11.814;2022-09-14T16:02:51;4.10;;;2.10;;
60999;SDS011;46879;45.658;11.814;2022-09-14T16:07:55;4.53;;;1.85;;
60999;SDS011;46879;45.658;11.814;2022-09-14T16:12:56;8.23;;;2.28;;
60999;SDS011;46879;45.658;11.814;2022-09-14T16:17:57;3.95;;;2.45;;
60999;SDS011;46879;45.658;11.814;2022-09-14T16:22:57;4.93;;;2.38;;
60999;SDS011;46879;45.658;11.814;2022-09-14T16:27:58;3.80;;;2.10;;
60999;SDS011;46879;45.658;11.814;2022-09-14T16:32:59;5.47;;;2.17;;
60999;SDS011;46879;45.658;11.814;2022-09-14T16:37:59;4.25;;;2.33;;
60999;SDS011;46879;45.658;11.814;2022-09-14T16:43:00;11.95;;;2.45;;
60999;SDS011;46879;45.658;11.814;2022-09-14T16:48:00;5.70;;;2.13;;
60999;SDS011;46879;45.658;11.814;2022-09-14T16:53:01;7.22;;;1.90;;
60999;SDS011;46879;45.658;11.814;2022-09-14T16:58:02;6.10;;;2.30;;
60999;SDS011;46879;45.658;11.814;2022-09-14T17:03:02;6.15;;;2.33;;
60999;SDS011;46879;45.658;11.814;2022-09-14T17:08:03;4.93;;;2.05;;
60999;SDS011;46879;45.658;11.814;2022-09-14T17:13:04;5.32;;;2.30;;
60999;SDS011;46879;45.658;11.814;2022-09-14T17:18:04;8.85;;;2.30;;
60999;SDS011;46879;45.658;11.814;2022-09-14T17:23:05;7.18;;;2.25;;
60999;SDS011;46879;45.658;11.814;2022-09-14T17:28:05;7.97;;;2.25;;
60999;SDS011;46879;45.658;11.814;2022-09-14T17:33:06;5.60;;;2.05;;
60999;SDS011;46879;45.658;11.814;2022-09-14T17:38:06;7.90;;;2.58;;
60999;SDS011;46879;45.658;11.814;2022-09-14T17:43:07;3.97;;;2.38;;
60999;SDS011;46879;45.658;11.814;2022-09-14T17:48:09;8.77;;;2.80;;
60999;SDS011;46879;45.658;11.814;2022-09-14T17:53:10;5.78;;;2.20;;
60999;SDS011;46879;45.658;11.814;2022-09-14T17:58:11;5.75;;;2.55;;
60999;SDS011;46879;45.658;11.814;2022-09-14T18:03:11;5.50;;;2.72;;
60999;SDS011;46879;45.658;11.814;2022-09-14T18:08:12;6.75;;;2.58;;
60999;SDS011;46879;45.658;11.814;2022-09-14T18:13:12;10.88;;;3.75;;
60999;SDS011;46879;45.658;11.814;2022-09-14T18:18:13;10.45;;;2.60;;
60999;SDS011;46879;45.658;11.814;2022-09-14T18:23:14;7.25;;;2.55;;
60999;SDS011;46879;45.658;11.814;2022-09-14T18:28:15;6.00;;;3.00;;
60999;SDS011;46879;45.658;11.814;2022-09-14T18:33:16;5.38;;;2.85;;
60999;SDS011;46879;45.658;11.814;2022-09-14T18:38:17;12.82;;;2.70;;
60999;SDS011;46879;45.658;11.814;2022-09-14T18:43:17;9.52;;;3.72;;
60999;SDS011;46879;45.658;11.814;2022-09-14T18:48:18;17.70;;;3.30;;
60999;SDS011;46879;45.658;11.814;2022-09-14T18:53:18;10.07;;;4.22;;
60999;SDS011;46879;45.658;11.814;2022-09-14T18:58:19;8.60;;;3.53;;
60999;SDS011;46879;45.658;11.814;2022-09-14T19:03:20;6.97;;;3.65;;
60999;SDS011;46879;45.658;11.814;2022-09-14T19:08:20;7.53;;;4.00;;
60999;SDS011;46879;45.658;11.814;2022-09-14T19:13:22;7.72;;;3.60;;
60999;SDS011;46879;45.658;11.814;2022-09-14T19:18:22;6.53;;;3.47;;
60999;SDS011;46879;45.658;11.814;2022-09-14T19:23:23;6.60;;;3.10;;
60999;SDS011;46879;45.658;11.814;2022-09-14T19:28:23;12.30;;;3.58;;
60999;SDS011;46879;45.658;11.814;2022-09-14T19:33:24;6.70;;;3.20;;
60999;SDS011;46879;45.658;11.814;2022-09-14T19:38:25;8.43;;;3.67;;
60999;SDS011;46879;45.658;11.814;2022-09-14T19:43:28;8.48;;;3.25;;
60999;SDS011;46879;45.658;11.814;2022-09-14T19:48:31;14.05;;;3.45;;
60999;SDS011;46879;45.658;11.814;2022-09-14T19:53:33;9.35;;;3.60;;
60999;SDS011;46879;45.658;11.814;2022-09-14T19:58:35;7.03;;;3.38;;
60999;SDS011;46879;45.658;11.814;2022-09-14T20:03:38;7.10;;;3.40;;
60999;SDS011;46879;45.658;11.814;2022-09-14T20:08:40;5.20;;;3.22;;
60999;SDS011;46879;45.658;11.814;2022-09-14T20:13:40;7.18;;;2.85;;
60999;SDS011;46879;45.658;11.814;2022-09-14T20:18:41;7.40;;;3.78;;
60999;SDS011;46879;45.658;11.814;2022-09-14T20:23:43;6.03;;;3.33;;
60999;SDS011;46879;45.658;11.814;2022-09-14T20:28:44;10.38;;;3.60;;
60999;SDS011;46879;45.658;11.814;2022-09-14T20:33:45;5.60;;;3.22;;
60999;SDS011;46879;45.658;11.814;2022-09-14T20:38:47;5.20;;;3.50;;
60999;SDS011;46879;45.658;11.814;2022-09-14T20:43:53;8.23;;;3.40;;
60999;SDS011;46879;45.658;11.814;2022-09-14T20:48:54;6.95;;;3.45;;
60999;SDS011;46879;45.658;11.814;2022-09-14T20:53:54;9.70;;;3.88;;
60999;SDS011;46879;45.658;11.814;2022-09-14T20:58:57;4.90;;;3.15;;
60999;SDS011;46879;45.658;11.814;2022-09-14T21:04:01;10.07;;;3.80;;
60999;SDS011;46879;45.658;11.814;2022-09-14T21:09:05;5.75;;;4.03;;
60999;SDS011;46879;45.658;11.814;2022-09-14T21:14:06;12.13;;;5.13;;
60999;SDS011;46879;45.658;11.814;2022-09-14T21:19:26;7.32;;;4.10;;
60999;SDS011;46879;45.658;11.814;2022-09-14T21:24:27;8.43;;;4.30;;
60999;SDS011;46879;45.658;11.814;2022-09-14T21:29:30;8.52;;;3.83;;
60999;SDS011;46879;45.658;11.814;2022-09-14T21:34:30;6.97;;;3.90;;
60999;SDS011;46879;45.658;11.814;2022-09-14T21:39:31;8.57;;;4.32;;
60999;SDS011;46879;45.658;11.814;2022-09-14T21:44:33;6.85;;;4.10;;
60999;SDS011;46879;45.658;11.814;2022-09-14T21:49:36;9.38;;;4.15;;
60999;SDS011;46879;45.658;11.814;2022-09-14T21:54:37;13.88;;;4.20;;
60999;SDS011;46879;45.658;11.814;2022-09-14T21:59:39;9.50;;;3.92;;
60999;SDS011;46879;45.658;11.814;2022-09-14T22:04:40;13.63;;;5.57;;
60999;SDS011;46879;45.658;11.814;2022-09-14T22:09:40;8.65;;;5.32;;
60999;SDS011;46879;45.658;11.814;2022-09-14T22:14:41;9.68;;;6.53;;
60999;SDS011;46879;45.658;11.814;2022-09-14T22:19:42;15.15;;;6.97;;
60999;SDS011;46879;45.658;11.814;2022-09-14T22:24:43;10.10;;;7.10;;
60999;SDS011;46879;45.658;11.814;2022-09-14T22:29:44;10.82;;;5.95;;
60999;SDS011;46879;45.658;11.814;2022-09-14T22:34:45;9.35;;;6.03;;
60999;SDS011;46879;45.658;11.814;2022-09-14T22:39:46;12.57;;;7.32;;
60999;SDS011;46879;45.658;11.814;2022-09-14T22:44:47;14.80;;;8.10;;
60999;SDS011;46879;45.658;11.814;2022-09-14T22:49:48;11.15;;;8.80;;
60999;SDS011;46879;45.658;11.814;2022-09-14T22:54:48;18.00;;;10.38;;
60999;SDS011;46879;45.658;11.814;2022-09-14T22:59:49;14.98;;;9.18;;
60999;SDS011;46879;45.658;11.814;2022-09-14T23:04:50;14.85;;;10.40;;
60999;SDS011;46879;45.658;11.814;2022-09-14T23:09:50;16.30;;;11.23;;
60999;SDS011;46879;45.658;11.814;2022-09-14T23:14:51;18.52;;;11.55;;
60999;SDS011;46879;45.658;11.814;2022-09-14T23:19:51;15.98;;;12.05;;
60999;SDS011;46879;45.658;11.814;2022-09-14T23:24:52;15.93;;;12.25;;
60999;SDS011;46879;45.658;11.814;2022-09-14T23:29:52;27.73;;;13.25;;
60999;SDS011;46879;45.658;11.814;2022-09-14T23:34:53;20.92;;;12.10;;
60999;SDS011;46879;45.658;11.814;2022-09-14T23:39:54;17.27;;;11.73;;
60999;SDS011;46879;45.658;11.814;2022-09-14T23:44:54;15.15;;;11.27;;
60999;SDS011;46879;45.658;11.814;2022-09-14T23:49:55;14.57;;;12.07;;
60999;SDS011;46879;45.658;11.814;2022-09-14T23:54:55;15.00;;;11.48;;
60999;SDS011;46879;45.658;11.814;2022-09-14T23:59:56;16.80;;;11.00;;
